sensor_id;sensor_type;location;lat;lon;timestamp;temperature;humidity
37289;DHT22;23174;49.462;11.000;2022-07-18T00:00:00;20.40;82.40
37289;DHT22;23174;49.462;11.000;2022-07-18T00:02:01;20.40;82.80
37289;DHT22;23174;49.462;11.000;2022-07-18T00:04:03;20.30;82.90
37289;DHT22;23174;49.462;11.000;2022-07-18T00:06:03;20.40;82.20
37289;DHT22;23174;49.462;11.000;2022-07-18T00:08:04;20.40;83.00
37289;DHT22;23174;49.462;11.000;2022-07-18T00:10:05;20.40;81.90
37289;DHT22;23174;49.462;11.000;2022-07-18T00:12:07;20.20;82.80
37289;DHT22;23174;49.462;11.000;2022-07-18T00:14:08;20.00;84.20
37289;DHT22;23174;49.462;11.000;2022-07-18T00:16:08;19.80;84.80
37289;DHT22;23174;49.462;11.000;2022-07-18T00:18:09;19.70;85.30
37289;DHT22;23174;49.462;11.000;2022-07-18T00:20:10;19.60;85.90
37289;DHT22;23174;49.462;11.000;2022-07-18T00:22:11;19.60;86.20
37289;DHT22;23174;49.462;11.000;2022-07-18T00:24:12;19.60;86.20
37289;DHT22;23174;49.462;11.000;2022-07-18T00:26:12;19.50;86.50
37289;DHT22;23174;49.462;11.000;2022-07-18T00:28:13;19.50;86.40
37289;DHT22;23174;49.462;11.000;2022-07-18T00:30:14;19.40;86.50
37289;DHT22;23174;49.462;11.000;2022-07-18T00:32:14;19.40;86.80
37289;DHT22;23174;49.462;11.000;2022-07-18T00:34:15;19.40;87.10
37289;DHT22;23174;49.462;11.000;2022-07-18T00:36:16;19.40;87.20
37289;DHT22;23174;49.462;11.000;2022-07-18T00:38:17;19.30;87.50
37289;DHT22;23174;49.462;11.000;2022-07-18T00:40:18;19.30;87.70
37289;DHT22;23174;49.462;11.000;2022-07-18T00:42:20;19.30;88.40
37289;DHT22;23174;49.462;11.000;2022-07-18T00:44:22;19.30;87.80
37289;DHT22;23174;49.462;11.000;2022-07-18T00:46:25;19.40;87.40
37289;DHT22;23174;49.462;11.000;2022-07-18T00:48:26;19.60;87.00
37289;DHT22;23174;49.462;11.000;2022-07-18T00:50:27;19.70;86.80
37289;DHT22;23174;49.462;11.000;2022-07-18T00:52:27;19.80;87.50
37289;DHT22;23174;49.462;11.000;2022-07-18T00:54:28;19.80;86.90
37289;DHT22;23174;49.462;11.000;2022-07-18T00:56:28;19.70;87.40
37289;DHT22;23174;49.462;11.000;2022-07-18T00:58:29;19.60;88.10
37289;DHT22;23174;49.462;11.000;2022-07-18T01:00:30;19.60;87.70
37289;DHT22;23174;49.462;11.000;2022-07-18T01:02:50;19.60;88.00
37289;DHT22;23174;49.462;11.000;2022-07-18T01:04:50;19.60;87.70
37289;DHT22;23174;49.462;11.000;2022-07-18T01:06:51;19.60;87.20
37289;DHT22;23174;49.462;11.000;2022-07-18T01:08:52;19.60;87.90
37289;DHT22;23174;49.462;11.000;2022-07-18T01:10:52;19.60;87.60
37289;DHT22;23174;49.462;11.000;2022-07-18T01:12:54;19.60;87.20
37289;DHT22;23174;49.462;11.000;2022-07-18T01:14:55;19.60;87.40
37289;DHT22;23174;49.462;11.000;2022-07-18T01:16:57;19.60;87.10
37289;DHT22;23174;49.462;11.000;2022-07-18T01:18:57;19.40;87.60
37289;DHT22;23174;49.462;11.000;2022-07-18T01:20:58;19.40;88.00
37289;DHT22;23174;49.462;11.000;2022-07-18T01:22:59;19.30;88.10
37289;DHT22;23174;49.462;11.000;2022-07-18T01:25:00;19.40;88.30
37289;DHT22;23174;49.462;11.000;2022-07-18T01:27:00;19.40;88.60
37289;DHT22;23174;49.462;11.000;2022-07-18T01:29:01;19.50;88.20
37289;DHT22;23174;49.462;11.000;2022-07-18T01:31:02;19.40;88.50
37289;DHT22;23174;49.462;11.000;2022-07-18T01:33:03;19.40;89.10
37289;DHT22;23174;49.462;11.000;2022-07-18T01:35:04;19.40;88.90
37289;DHT22;23174;49.462;11.000;2022-07-18T01:37:06;19.50;88.90
37289;DHT22;23174;49.462;11.000;2022-07-18T01:39:06;19.50;89.10
37289;DHT22;23174;49.462;11.000;2022-07-18T01:41:07;19.40;89.40
37289;DHT22;23174;49.462;11.000;2022-07-18T01:43:08;19.40;89.20
37289;DHT22;23174;49.462;11.000;2022-07-18T01:45:08;19.50;89.30
37289;DHT22;23174;49.462;11.000;2022-07-18T01:47:10;19.40;89.40
37289;DHT22;23174;49.462;11.000;2022-07-18T01:49:11;19.40;89.70
37289;DHT22;23174;49.462;11.000;2022-07-18T01:51:11;19.40;89.60
37289;DHT22;23174;49.462;11.000;2022-07-18T01:53:12;19.40;89.60
37289;DHT22;23174;49.462;11.000;2022-07-18T01:55:13;19.40;89.70
37289;DHT22;23174;49.462;11.000;2022-07-18T01:57:13;19.40;90.00
37289;DHT22;23174;49.462;11.000;2022-07-18T01:59:14;19.40;90.30
37289;DHT22;23174;49.462;11.000;2022-07-18T02:01:15;19.30;90.20
37289;DHT22;23174;49.462;11.000;2022-07-18T02:03:16;19.40;90.10
37289;DHT22;23174;49.462;11.000;2022-07-18T02:05:17;19.40;90.10
37289;DHT22;23174;49.462;11.000;2022-07-18T02:07:18;19.40;90.10
37289;DHT22;23174;49.462;11.000;2022-07-18T02:09:18;19.30;90.20
37289;DHT22;23174;49.462;11.000;2022-07-18T02:11:19;19.20;90.30
37289;DHT22;23174;49.462;11.000;2022-07-18T02:13:20;19.20;90.50
37289;DHT22;23174;49.462;11.000;2022-07-18T02:15:21;19.20;90.60
37289;DHT22;23174;49.462;11.000;2022-07-18T02:17:21;19.20;90.60
37289;DHT22;23174;49.462;11.000;2022-07-18T02:19:22;19.20;90.70
37289;DHT22;23174;49.462;11.000;2022-07-18T02:21:23;19.20;90.80
37289;DHT22;23174;49.462;11.000;2022-07-18T02:23:24;19.10;90.80
37289;DHT22;23174;49.462;11.000;2022-07-18T02:25:24;19.20;90.80
37289;DHT22;23174;49.462;11.000;2022-07-18T02:27:25;19.10;90.90
37289;DHT22;23174;49.462;11.000;2022-07-18T02:29:26;19.10;91.10
37289;DHT22;23174;49.462;11.000;2022-07-18T02:31:27;19.10;91.00
37289;DHT22;23174;49.462;11.000;2022-07-18T02:33:27;19.20;90.90
37289;DHT22;23174;49.462;11.000;2022-07-18T02:35:28;19.10;91.10
37289;DHT22;23174;49.462;11.000;2022-07-18T02:37:28;19.20;90.90
37289;DHT22;23174;49.462;11.000;2022-07-18T02:39:29;19.20;90.70
37289;DHT22;23174;49.462;11.000;2022-07-18T02:41:30;19.20;90.70
37289;DHT22;23174;49.462;11.000;2022-07-18T02:43:31;19.20;90.70
37289;DHT22;23174;49.462;11.000;2022-07-18T02:45:31;19.10;91.00
37289;DHT22;23174;49.462;11.000;2022-07-18T02:47:32;18.90;91.30
37289;DHT22;23174;49.462;11.000;2022-07-18T02:49:32;18.70;91.70
37289;DHT22;23174;49.462;11.000;2022-07-18T02:51:34;18.50;91.90
37289;DHT22;23174;49.462;11.000;2022-07-18T02:53:34;18.50;92.00
37289;DHT22;23174;49.462;11.000;2022-07-18T02:55:35;18.40;92.00
37289;DHT22;23174;49.462;11.000;2022-07-18T02:57:36;18.50;92.10
37289;DHT22;23174;49.462;11.000;2022-07-18T02:59:36;18.40;92.30
37289;DHT22;23174;49.462;11.000;2022-07-18T03:01:37;18.40;92.30
37289;DHT22;23174;49.462;11.000;2022-07-18T03:03:38;18.40;92.30
37289;DHT22;23174;49.462;11.000;2022-07-18T03:05:38;18.30;92.30
37289;DHT22;23174;49.462;11.000;2022-07-18T03:07:39;18.30;92.50
37289;DHT22;23174;49.462;11.000;2022-07-18T03:09:40;18.30;92.70
37289;DHT22;23174;49.462;11.000;2022-07-18T03:11:41;18.20;92.40
37289;DHT22;23174;49.462;11.000;2022-07-18T03:13:41;18.10;92.70
37289;DHT22;23174;49.462;11.000;2022-07-18T03:15:42;18.00;93.00
37289;DHT22;23174;49.462;11.000;2022-07-18T03:17:42;17.90;93.00
37289;DHT22;23174;49.462;11.000;2022-07-18T03:19:43;17.90;93.10
37289;DHT22;23174;49.462;11.000;2022-07-18T03:21:44;17.70;93.40
37289;DHT22;23174;49.462;11.000;2022-07-18T03:23:45;17.70;93.60
37289;DHT22;23174;49.462;11.000;2022-07-18T03:25:46;17.70;93.90
37289;DHT22;23174;49.462;11.000;2022-07-18T03:27:47;17.60;94.10
37289;DHT22;23174;49.462;11.000;2022-07-18T03:29:47;17.60;94.30
37289;DHT22;23174;49.462;11.000;2022-07-18T03:31:48;17.60;94.30
37289;DHT22;23174;49.462;11.000;2022-07-18T03:33:49;17.50;94.60
37289;DHT22;23174;49.462;11.000;2022-07-18T03:35:50;17.50;94.70
37289;DHT22;23174;49.462;11.000;2022-07-18T03:37:50;17.50;94.90
37289;DHT22;23174;49.462;11.000;2022-07-18T03:39:51;17.50;94.90
37289;DHT22;23174;49.462;11.000;2022-07-18T03:41:51;17.40;94.90
37289;DHT22;23174;49.462;11.000;2022-07-18T03:43:52;17.30;94.90
37289;DHT22;23174;49.462;11.000;2022-07-18T03:45:53;17.20;95.00
37289;DHT22;23174;49.462;11.000;2022-07-18T03:47:53;17.30;95.00
37289;DHT22;23174;49.462;11.000;2022-07-18T03:49:55;17.20;94.90
37289;DHT22;23174;49.462;11.000;2022-07-18T03:51:56;17.20;95.00
37289;DHT22;23174;49.462;11.000;2022-07-18T03:53:56;17.10;95.20
37289;DHT22;23174;49.462;11.000;2022-07-18T03:55:57;17.10;95.20
37289;DHT22;23174;49.462;11.000;2022-07-18T03:57:58;17.10;95.20
37289;DHT22;23174;49.462;11.000;2022-07-18T03:59:58;17.00;95.20
37289;DHT22;23174;49.462;11.000;2022-07-18T04:01:59;17.00;95.10
37289;DHT22;23174;49.462;11.000;2022-07-18T04:03:59;16.90;95.20
37289;DHT22;23174;49.462;11.000;2022-07-18T04:06:00;16.90;95.20
37289;DHT22;23174;49.462;11.000;2022-07-18T04:08:01;16.90;95.40
37289;DHT22;23174;49.462;11.000;2022-07-18T04:10:02;16.90;95.40
37289;DHT22;23174;49.462;11.000;2022-07-18T04:12:03;17.00;95.30
37289;DHT22;23174;49.462;11.000;2022-07-18T04:14:04;16.90;95.40
37289;DHT22;23174;49.462;11.000;2022-07-18T04:16:05;17.00;95.30
37289;DHT22;23174;49.462;11.000;2022-07-18T04:18:06;16.90;95.40
37289;DHT22;23174;49.462;11.000;2022-07-18T04:20:08;17.00;95.30
37289;DHT22;23174;49.462;11.000;2022-07-18T04:22:09;17.00;95.40
37289;DHT22;23174;49.462;11.000;2022-07-18T04:24:10;17.00;95.60
37289;DHT22;23174;49.462;11.000;2022-07-18T04:26:11;17.10;95.60
37289;DHT22;23174;49.462;11.000;2022-07-18T04:28:12;17.10;95.50
37289;DHT22;23174;49.462;11.000;2022-07-18T04:30:14;17.10;95.40
37289;DHT22;23174;49.462;11.000;2022-07-18T04:32:15;17.10;95.30
37289;DHT22;23174;49.462;11.000;2022-07-18T04:34:16;17.30;95.30
37289;DHT22;23174;49.462;11.000;2022-07-18T04:36:16;17.30;95.00
37289;DHT22;23174;49.462;11.000;2022-07-18T04:38:18;17.40;94.70
37289;DHT22;23174;49.462;11.000;2022-07-18T04:40:19;17.40;94.90
37289;DHT22;23174;49.462;11.000;2022-07-18T04:42:20;17.30;94.60
37289;DHT22;23174;49.462;11.000;2022-07-18T04:44:20;17.40;94.70
37289;DHT22;23174;49.462;11.000;2022-07-18T04:46:21;17.40;94.30
37289;DHT22;23174;49.462;11.000;2022-07-18T04:48:21;17.40;94.30
37289;DHT22;23174;49.462;11.000;2022-07-18T04:50:22;17.40;94.30
37289;DHT22;23174;49.462;11.000;2022-07-18T04:52:24;17.40;94.40
37289;DHT22;23174;49.462;11.000;2022-07-18T04:54:24;17.40;94.20
37289;DHT22;23174;49.462;11.000;2022-07-18T04:56:25;17.40;94.30
37289;DHT22;23174;49.462;11.000;2022-07-18T04:58:25;17.50;94.00
37289;DHT22;23174;49.462;11.000;2022-07-18T05:00:26;17.50;94.20
37289;DHT22;23174;49.462;11.000;2022-07-18T05:02:27;17.60;93.80
37289;DHT22;23174;49.462;11.000;2022-07-18T05:04:28;17.50;93.80
37289;DHT22;23174;49.462;11.000;2022-07-18T05:06:29;17.50;94.30
37289;DHT22;23174;49.462;11.000;2022-07-18T05:08:29;17.50;94.10
37289;DHT22;23174;49.462;11.000;2022-07-18T05:10:30;17.60;94.20
37289;DHT22;23174;49.462;11.000;2022-07-18T05:12:31;17.60;94.20
37289;DHT22;23174;49.462;11.000;2022-07-18T05:14:31;17.80;94.00
37289;DHT22;23174;49.462;11.000;2022-07-18T05:16:32;17.90;93.90
37289;DHT22;23174;49.462;11.000;2022-07-18T05:18:33;17.90;93.80
37289;DHT22;23174;49.462;11.000;2022-07-18T05:20:33;17.90;93.80
37289;DHT22;23174;49.462;11.000;2022-07-18T05:22:35;18.00;94.00
37289;DHT22;23174;49.462;11.000;2022-07-18T05:24:35;18.20;93.60
37289;DHT22;23174;49.462;11.000;2022-07-18T05:26:36;18.30;93.60
37289;DHT22;23174;49.462;11.000;2022-07-18T05:28:36;18.40;93.10
37289;DHT22;23174;49.462;11.000;2022-07-18T05:30:37;18.50;92.70
37289;DHT22;23174;49.462;11.000;2022-07-18T05:32:40;18.50;92.80
37289;DHT22;23174;49.462;11.000;2022-07-18T05:34:40;18.40;92.80
37289;DHT22;23174;49.462;11.000;2022-07-18T05:36:41;18.40;92.80
37289;DHT22;23174;49.462;11.000;2022-07-18T05:38:41;18.40;92.70
37289;DHT22;23174;49.462;11.000;2022-07-18T05:40:42;18.50;92.50
37289;DHT22;23174;49.462;11.000;2022-07-18T05:42:43;18.50;92.90
37289;DHT22;23174;49.462;11.000;2022-07-18T05:44:44;18.60;92.50
37289;DHT22;23174;49.462;11.000;2022-07-18T05:46:46;18.60;92.30
37289;DHT22;23174;49.462;11.000;2022-07-18T05:48:47;18.70;92.20
37289;DHT22;23174;49.462;11.000;2022-07-18T05:50:48;18.70;92.00
37289;DHT22;23174;49.462;11.000;2022-07-18T05:52:49;18.70;91.90
37289;DHT22;23174;49.462;11.000;2022-07-18T05:54:49;18.90;91.90
37289;DHT22;23174;49.462;11.000;2022-07-18T05:56:51;18.90;91.80
37289;DHT22;23174;49.462;11.000;2022-07-18T05:58:52;18.90;91.80
37289;DHT22;23174;49.462;11.000;2022-07-18T06:00:52;19.00;91.80
37289;DHT22;23174;49.462;11.000;2022-07-18T06:02:54;19.10;91.40
37289;DHT22;23174;49.462;11.000;2022-07-18T06:04:54;19.20;91.30
37289;DHT22;23174;49.462;11.000;2022-07-18T06:06:55;19.30;91.30
37289;DHT22;23174;49.462;11.000;2022-07-18T06:08:56;19.40;91.10
37289;DHT22;23174;49.462;11.000;2022-07-18T06:10:56;19.40;90.90
37289;DHT22;23174;49.462;11.000;2022-07-18T06:12:57;19.40;90.50
37289;DHT22;23174;49.462;11.000;2022-07-18T06:14:58;19.50;90.60
37289;DHT22;23174;49.462;11.000;2022-07-18T06:16:59;19.60;90.70
37289;DHT22;23174;49.462;11.000;2022-07-18T06:19:00;19.70;90.80
37289;DHT22;23174;49.462;11.000;2022-07-18T06:21:02;19.80;90.40
37289;DHT22;23174;49.462;11.000;2022-07-18T06:23:02;19.80;90.30
37289;DHT22;23174;49.462;11.000;2022-07-18T06:25:03;19.90;89.30
37289;DHT22;23174;49.462;11.000;2022-07-18T06:27:04;19.90;89.90
37289;DHT22;23174;49.462;11.000;2022-07-18T06:29:05;20.00;89.10
37289;DHT22;23174;49.462;11.000;2022-07-18T06:31:06;19.90;89.40
37289;DHT22;23174;49.462;11.000;2022-07-18T06:33:06;19.90;89.20
37289;DHT22;23174;49.462;11.000;2022-07-18T06:35:08;20.00;88.80
37289;DHT22;23174;49.462;11.000;2022-07-18T06:37:09;20.10;88.70
37289;DHT22;23174;49.462;11.000;2022-07-18T06:39:10;20.20;88.40
37289;DHT22;23174;49.462;11.000;2022-07-18T06:41:11;20.30;88.10
37289;DHT22;23174;49.462;11.000;2022-07-18T06:43:12;20.40;87.60
37289;DHT22;23174;49.462;11.000;2022-07-18T06:45:19;20.50;87.30
37289;DHT22;23174;49.462;11.000;2022-07-18T06:47:20;20.60;86.50
37289;DHT22;23174;49.462;11.000;2022-07-18T06:49:20;20.60;86.70
37289;DHT22;23174;49.462;11.000;2022-07-18T06:51:21;20.70;86.60
37289;DHT22;23174;49.462;11.000;2022-07-18T06:53:21;20.70;85.90
37289;DHT22;23174;49.462;11.000;2022-07-18T06:55:22;20.80;86.20
37289;DHT22;23174;49.462;11.000;2022-07-18T06:57:22;20.80;85.30
37289;DHT22;23174;49.462;11.000;2022-07-18T06:59:23;20.90;85.20
37289;DHT22;23174;49.462;11.000;2022-07-18T07:01:24;21.00;85.10
37289;DHT22;23174;49.462;11.000;2022-07-18T07:03:25;21.00;84.90
37289;DHT22;23174;49.462;11.000;2022-07-18T07:05:25;21.10;85.00
37289;DHT22;23174;49.462;11.000;2022-07-18T07:07:26;21.20;84.50
37289;DHT22;23174;49.462;11.000;2022-07-18T07:09:27;21.30;84.50
37289;DHT22;23174;49.462;11.000;2022-07-18T07:11:27;21.30;84.10
37289;DHT22;23174;49.462;11.000;2022-07-18T07:13:28;21.30;84.00
37289;DHT22;23174;49.462;11.000;2022-07-18T07:15:28;21.50;84.30
37289;DHT22;23174;49.462;11.000;2022-07-18T07:17:29;21.50;83.60
37289;DHT22;23174;49.462;11.000;2022-07-18T07:19:30;21.50;83.70
37289;DHT22;23174;49.462;11.000;2022-07-18T07:21:30;21.60;83.70
37289;DHT22;23174;49.462;11.000;2022-07-18T07:23:31;21.60;83.40
37289;DHT22;23174;49.462;11.000;2022-07-18T07:25:32;21.70;82.70
37289;DHT22;23174;49.462;11.000;2022-07-18T07:27:32;21.70;82.40
37289;DHT22;23174;49.462;11.000;2022-07-18T07:29:33;21.70;82.40
37289;DHT22;23174;49.462;11.000;2022-07-18T07:31:33;21.70;82.30
37289;DHT22;23174;49.462;11.000;2022-07-18T07:33:34;21.80;82.20
37289;DHT22;23174;49.462;11.000;2022-07-18T07:35:35;21.80;81.70
37289;DHT22;23174;49.462;11.000;2022-07-18T07:37:36;21.90;82.00
37289;DHT22;23174;49.462;11.000;2022-07-18T07:39:37;21.90;82.40
37289;DHT22;23174;49.462;11.000;2022-07-18T07:41:38;22.00;81.80
37289;DHT22;23174;49.462;11.000;2022-07-18T07:43:39;22.20;81.60
37289;DHT22;23174;49.462;11.000;2022-07-18T07:45:40;22.20;81.20
37289;DHT22;23174;49.462;11.000;2022-07-18T07:47:40;22.20;81.20
37289;DHT22;23174;49.462;11.000;2022-07-18T07:49:41;22.20;81.30
37289;DHT22;23174;49.462;11.000;2022-07-18T07:51:41;22.10;81.80
37289;DHT22;23174;49.462;11.000;2022-07-18T07:53:42;22.30;81.00
37289;DHT22;23174;49.462;11.000;2022-07-18T07:55:43;22.30;80.80
37289;DHT22;23174;49.462;11.000;2022-07-18T07:57:43;22.30;80.70
37289;DHT22;23174;49.462;11.000;2022-07-18T07:59:44;22.40;80.40
37289;DHT22;23174;49.462;11.000;2022-07-18T08:01:45;22.40;80.60
37289;DHT22;23174;49.462;11.000;2022-07-18T08:03:46;22.40;80.20
37289;DHT22;23174;49.462;11.000;2022-07-18T08:05:49;22.50;80.70
37289;DHT22;23174;49.462;11.000;2022-07-18T08:07:50;22.60;79.40
37289;DHT22;23174;49.462;11.000;2022-07-18T08:09:51;22.70;79.20
37289;DHT22;23174;49.462;11.000;2022-07-18T08:11:52;22.80;78.50
37289;DHT22;23174;49.462;11.000;2022-07-18T08:13:52;22.80;78.50
37289;DHT22;23174;49.462;11.000;2022-07-18T08:15:54;22.90;79.00
37289;DHT22;23174;49.462;11.000;2022-07-18T08:17:55;22.90;78.10
37289;DHT22;23174;49.462;11.000;2022-07-18T08:19:55;22.90;77.80
37289;DHT22;23174;49.462;11.000;2022-07-18T08:21:56;22.90;78.40
37289;DHT22;23174;49.462;11.000;2022-07-18T08:23:56;23.00;77.40
37289;DHT22;23174;49.462;11.000;2022-07-18T08:25:57;23.00;79.00
37289;DHT22;23174;49.462;11.000;2022-07-18T08:27:59;23.00;79.60
37289;DHT22;23174;49.462;11.000;2022-07-18T08:30:00;23.10;79.40
37289;DHT22;23174;49.462;11.000;2022-07-18T08:32:00;23.20;77.40
37289;DHT22;23174;49.462;11.000;2022-07-18T08:34:01;23.20;77.70
37289;DHT22;23174;49.462;11.000;2022-07-18T08:36:02;23.30;75.90
37289;DHT22;23174;49.462;11.000;2022-07-18T08:38:03;23.20;76.10
37289;DHT22;23174;49.462;11.000;2022-07-18T08:40:04;23.30;76.00
37289;DHT22;23174;49.462;11.000;2022-07-18T08:42:07;23.30;75.60
37289;DHT22;23174;49.462;11.000;2022-07-18T08:44:09;23.30;76.40
37289;DHT22;23174;49.462;11.000;2022-07-18T08:46:10;23.30;75.90
37289;DHT22;23174;49.462;11.000;2022-07-18T08:48:16;23.40;77.30
37289;DHT22;23174;49.462;11.000;2022-07-18T08:50:18;23.50;77.60
37289;DHT22;23174;49.462;11.000;2022-07-18T08:52:20;23.40;77.90
37289;DHT22;23174;49.462;11.000;2022-07-18T08:54:21;23.60;77.40
37289;DHT22;23174;49.462;11.000;2022-07-18T08:56:22;23.50;76.80
37289;DHT22;23174;49.462;11.000;2022-07-18T08:58:22;23.70;76.10
37289;DHT22;23174;49.462;11.000;2022-07-18T09:00:23;23.80;78.00
37289;DHT22;23174;49.462;11.000;2022-07-18T09:02:28;23.90;78.00
37289;DHT22;23174;49.462;11.000;2022-07-18T09:04:33;23.80;78.30
37289;DHT22;23174;49.462;11.000;2022-07-18T09:07:03;23.80;78.50
37289;DHT22;23174;49.462;11.000;2022-07-18T09:09:04;23.80;78.90
37289;DHT22;23174;49.462;11.000;2022-07-18T09:11:10;23.90;77.60
37289;DHT22;23174;49.462;11.000;2022-07-18T09:13:11;23.90;78.30
37289;DHT22;23174;49.462;11.000;2022-07-18T09:15:12;23.90;78.10
37289;DHT22;23174;49.462;11.000;2022-07-18T09:17:25;24.00;77.10
37289;DHT22;23174;49.462;11.000;2022-07-18T09:19:26;24.00;76.00
37289;DHT22;23174;49.462;11.000;2022-07-18T09:21:27;24.10;74.90
37289;DHT22;23174;49.462;11.000;2022-07-18T09:23:30;24.20;73.50
37289;DHT22;23174;49.462;11.000;2022-07-18T09:25:33;24.10;72.60
37289;DHT22;23174;49.462;11.000;2022-07-18T09:29:34;24.20;71.40
37289;DHT22;23174;49.462;11.000;2022-07-18T09:31:36;24.40;71.10
37289;DHT22;23174;49.462;11.000;2022-07-18T09:33:54;24.50;70.30
37289;DHT22;23174;49.462;11.000;2022-07-18T09:35:58;24.50;67.40
37289;DHT22;23174;49.462;11.000;2022-07-18T09:38:10;24.50;66.80
37289;DHT22;23174;49.462;11.000;2022-07-18T09:40:20;24.50;67.60
37289;DHT22;23174;49.462;11.000;2022-07-18T09:42:24;24.60;67.20
37289;DHT22;23174;49.462;11.000;2022-07-18T09:44:25;24.50;67.90
37289;DHT22;23174;49.462;11.000;2022-07-18T09:46:25;24.70;67.70
37289;DHT22;23174;49.462;11.000;2022-07-18T09:48:27;24.80;67.10
37289;DHT22;23174;49.462;11.000;2022-07-18T09:50:43;24.90;66.40
37289;DHT22;23174;49.462;11.000;2022-07-18T09:52:44;24.90;65.00
37289;DHT22;23174;49.462;11.000;2022-07-18T09:54:44;25.00;63.70
37289;DHT22;23174;49.462;11.000;2022-07-18T09:56:45;25.10;63.90
37289;DHT22;23174;49.462;11.000;2022-07-18T09:58:56;25.00;63.60
37289;DHT22;23174;49.462;11.000;2022-07-18T10:00:58;25.00;63.80
37289;DHT22;23174;49.462;11.000;2022-07-18T10:03:00;25.10;64.20
37289;DHT22;23174;49.462;11.000;2022-07-18T10:05:01;25.00;64.30
37289;DHT22;23174;49.462;11.000;2022-07-18T10:07:02;25.00;64.00
37289;DHT22;23174;49.462;11.000;2022-07-18T10:09:03;25.20;64.30
37289;DHT22;23174;49.462;11.000;2022-07-18T10:11:06;25.60;64.00
37289;DHT22;23174;49.462;11.000;2022-07-18T10:13:07;26.10;63.70
37289;DHT22;23174;49.462;11.000;2022-07-18T10:15:08;26.30;63.70
37289;DHT22;23174;49.462;11.000;2022-07-18T10:17:10;25.80;64.10
37289;DHT22;23174;49.462;11.000;2022-07-18T10:19:11;25.70;64.20
37289;DHT22;23174;49.462;11.000;2022-07-18T10:21:13;25.60;64.10
37289;DHT22;23174;49.462;11.000;2022-07-18T10:25:21;25.50;63.80
37289;DHT22;23174;49.462;11.000;2022-07-18T10:27:23;25.60;64.10
37289;DHT22;23174;49.462;11.000;2022-07-18T10:29:26;25.80;63.60
37289;DHT22;23174;49.462;11.000;2022-07-18T10:31:31;26.10;64.00
37289;DHT22;23174;49.462;11.000;2022-07-18T10:33:44;26.10;62.90
37289;DHT22;23174;49.462;11.000;2022-07-18T10:35:59;26.10;63.40
37289;DHT22;23174;49.462;11.000;2022-07-18T10:38:20;26.00;62.90
37289;DHT22;23174;49.462;11.000;2022-07-18T10:42:22;26.20;63.40
37289;DHT22;23174;49.462;11.000;2022-07-18T10:47:03;26.40;62.50
37289;DHT22;23174;49.462;11.000;2022-07-18T10:49:10;26.30;63.10
37289;DHT22;23174;49.462;11.000;2022-07-18T10:51:12;26.10;63.00
37289;DHT22;23174;49.462;11.000;2022-07-18T10:53:13;26.20;62.70
37289;DHT22;23174;49.462;11.000;2022-07-18T10:55:34;26.20;62.80
37289;DHT22;23174;49.462;11.000;2022-07-18T11:00:13;26.50;63.70
37289;DHT22;23174;49.462;11.000;2022-07-18T11:02:14;26.20;63.60
37289;DHT22;23174;49.462;11.000;2022-07-18T11:04:36;26.20;63.10
37289;DHT22;23174;49.462;11.000;2022-07-18T11:07:14;26.20;63.40
37289;DHT22;23174;49.462;11.000;2022-07-18T11:12:16;27.10;63.90
37289;DHT22;23174;49.462;11.000;2022-07-18T11:17:05;26.70;62.30
37289;DHT22;23174;49.462;11.000;2022-07-18T11:21:20;26.60;62.40
37289;DHT22;23174;49.462;11.000;2022-07-18T11:23:23;26.40;62.60
37289;DHT22;23174;49.462;11.000;2022-07-18T11:25:28;26.40;62.80
37289;DHT22;23174;49.462;11.000;2022-07-18T11:27:30;26.50;62.60
37289;DHT22;23174;49.462;11.000;2022-07-18T11:29:40;26.40;62.80
37289;DHT22;23174;49.462;11.000;2022-07-18T11:31:55;26.60;62.60
37289;DHT22;23174;49.462;11.000;2022-07-18T11:33:59;26.50;62.70
37289;DHT22;23174;49.462;11.000;2022-07-18T11:38:04;26.60;62.60
37289;DHT22;23174;49.462;11.000;2022-07-18T11:40:09;26.50;63.00
37289;DHT22;23174;49.462;11.000;2022-07-18T11:42:11;26.40;62.90
37289;DHT22;23174;49.462;11.000;2022-07-18T11:44:17;26.40;63.00
37289;DHT22;23174;49.462;11.000;2022-07-18T11:46:21;26.50;63.90
37289;DHT22;23174;49.462;11.000;2022-07-18T11:48:22;26.50;63.40
37289;DHT22;23174;49.462;11.000;2022-07-18T11:50:34;26.40;63.70
37289;DHT22;23174;49.462;11.000;2022-07-18T11:52:35;26.50;63.50
37289;DHT22;23174;49.462;11.000;2022-07-18T11:54:35;26.60;64.00
37289;DHT22;23174;49.462;11.000;2022-07-18T11:56:47;26.60;63.50
37289;DHT22;23174;49.462;11.000;2022-07-18T11:58:49;26.60;64.30
37289;DHT22;23174;49.462;11.000;2022-07-18T12:00:50;26.60;63.40
37289;DHT22;23174;49.462;11.000;2022-07-18T12:03:23;26.60;63.10
37289;DHT22;23174;49.462;11.000;2022-07-18T12:05:32;26.60;62.90
37289;DHT22;23174;49.462;11.000;2022-07-18T12:07:33;26.60;62.90
37289;DHT22;23174;49.462;11.000;2022-07-18T12:09:33;26.60;63.00
37289;DHT22;23174;49.462;11.000;2022-07-18T12:11:36;26.60;63.00
37289;DHT22;23174;49.462;11.000;2022-07-18T12:15:43;26.60;62.80
37289;DHT22;23174;49.462;11.000;2022-07-18T12:17:48;26.60;63.60
37289;DHT22;23174;49.462;11.000;2022-07-18T12:19:51;26.70;62.70
37289;DHT22;23174;49.462;11.000;2022-07-18T12:23:52;26.80;62.80
37289;DHT22;23174;49.462;11.000;2022-07-18T12:25:52;26.80;62.80
37289;DHT22;23174;49.462;11.000;2022-07-18T12:27:53;26.80;63.00
37289;DHT22;23174;49.462;11.000;2022-07-18T12:30:07;26.70;62.70
37289;DHT22;23174;49.462;11.000;2022-07-18T12:32:15;26.80;63.10
37289;DHT22;23174;49.462;11.000;2022-07-18T12:34:16;26.80;63.00
37289;DHT22;23174;49.462;11.000;2022-07-18T12:36:19;26.80;62.70
37289;DHT22;23174;49.462;11.000;2022-07-18T12:38:20;26.80;62.70
37289;DHT22;23174;49.462;11.000;2022-07-18T12:40:22;26.90;62.40
37289;DHT22;23174;49.462;11.000;2022-07-18T12:42:34;26.90;63.10
37289;DHT22;23174;49.462;11.000;2022-07-18T12:44:35;26.90;62.40
37289;DHT22;23174;49.462;11.000;2022-07-18T12:46:35;26.90;63.00
37289;DHT22;23174;49.462;11.000;2022-07-18T12:48:36;27.00;62.80
37289;DHT22;23174;49.462;11.000;2022-07-18T12:50:38;27.10;62.40
37289;DHT22;23174;49.462;11.000;2022-07-18T12:52:39;27.10;63.60
37289;DHT22;23174;49.462;11.000;2022-07-18T12:54:39;27.30;62.00
37289;DHT22;23174;49.462;11.000;2022-07-18T12:56:40;27.10;63.70
37289;DHT22;23174;49.462;11.000;2022-07-18T12:58:41;27.10;63.30
37289;DHT22;23174;49.462;11.000;2022-07-18T13:00:41;27.20;63.10
37289;DHT22;23174;49.462;11.000;2022-07-18T13:02:44;27.30;62.50